Time;durP1;ratioP1;P1;durP2;ratioP2;P2;SDS_P1;SDS_P2;PMS_P1;PMS_P2;Temp;Humidity;BMP_temperature;BMP_pressure;BME280_temperature;BME280_humidity;BME280_pressure;Samples;Min_cycle;Max_cycle;Signal;HPM_P1;HPM_P2
2022/06/09 00:01:02;;;;;;;6.72;4.00;;;;;;;15.66;100.00;92580.50;5172069;27;20049;-86
2022/06/09 00:03:36;;;;;;;6.75;3.80;;;;;;;15.65;100.00;92577.16;5172159;27;20113;-87
2022/06/09 00:06:09;;;;;;;6.18;4.32;;;;;;;15.68;100.00;92576.63;5172671;27;20034;-86
2022/06/09 00:08:37;;;;;;;5.80;4.03;;;;;;;15.63;100.00;92563.69;5173944;27;20046;-88
2022/06/09 00:11:08;;;;;;;6.60;4.38;;;;;;;15.69;100.00;92585.94;5173827;27;20038;-86
2022/06/09 00:13:35;;;;;;;6.53;4.10;;;;;;;15.70;100.00;92578.97;5174433;27;20038;-86
2022/06/09 00:16:02;;;;;;;7.10;4.38;;;;;;;15.67;100.00;92567.31;5173814;27;20042;-86
2022/06/09 00:18:29;;;;;;;5.85;4.32;;;;;;;15.68;100.00;92570.66;5171522;27;20038;-88
2022/06/09 00:20:56;;;;;;;7.00;3.97;;;;;;;15.49;100.00;92542.69;5174564;27;20415;-86
2022/06/09 00:23:24;;;;;;;6.00;3.83;;;;;;;15.65;100.00;92561.63;5173961;27;20046;-86
2022/06/09 00:25:51;;;;;;;7.85;4.35;;;;;;;15.48;100.00;92531.56;5180167;27;20083;-85
2022/06/09 00:28:18;;;;;;;6.40;4.13;;;;;;;15.56;100.00;92550.97;5186860;27;20046;-84
2022/06/09 00:30:46;;;;;;;7.95;4.40;;;;;;;15.55;100.00;92546.06;5175920;27;20042;-86
2022/06/09 00:33:13;;;;;;;6.15;4.68;;;;;;;15.48;100.00;92536.75;5173522;27;20042;-86
2022/06/09 00:35:40;;;;;;;7.53;4.20;;;;;;;15.52;100.00;92544.78;5173175;27;20472;-86
2022/06/09 00:38:07;;;;;;;7.50;4.53;;;;;;;15.47;100.00;92539.59;5173296;27;20049;-87
2022/06/09 00:40:35;;;;;;;5.57;4.07;;;;;;;15.49;100.00;92551.25;5171328;27;20046;-86
2022/06/09 00:43:04;;;;;;;5.95;4.28;;;;;;;15.44;100.00;92555.63;5173147;27;20070;-87
2022/06/09 00:45:34;;;;;;;6.88;4.35;;;;;;;15.35;100.00;92550.16;5173112;27;20058;-86
2022/06/09 00:48:19;;;;;;;8.30;4.57;;;;;;;15.33;100.00;92555.59;5173027;27;20042;-87
2022/06/09 00:50:48;;;;;;;6.32;5.00;;;;;;;15.23;100.00;92550.41;5155114;27;20516;-86
2022/06/09 00:53:22;;;;;;;6.32;4.78;;;;;;;15.27;100.00;92555.84;5173016;27;20054;-87
2022/06/09 00:55:52;;;;;;;5.22;4.10;;;;;;;15.18;100.00;92547.81;5173098;27;20053;-87
2022/06/09 00:58:24;;;;;;;6.50;4.78;;;;;;;15.17;100.00;92547.03;5172850;27;20090;-86
2022/06/09 01:00:55;;;;;;;7.05;5.07;;;;;;;15.18;100.00;92555.56;5170714;27;20061;-85
2022/06/09 01:03:29;;;;;;;6.60;4.55;;;;;;;15.14;100.00;92544.16;5170346;27;20042;-86
2022/06/09 01:06:03;;;;;;;6.57;4.45;;;;;;;15.07;100.00;92546.97;5172262;27;20058;-86
2022/06/09 01:08:32;;;;;;;8.38;5.40;;;;;;;15.01;100.00;92546.19;5172497;27;20601;-87
2022/06/09 01:11:00;;;;;;;8.57;5.10;;;;;;;14.87;100.00;92525.19;5172560;27;20054;-86
2022/06/09 01:13:27;;;;;;;8.45;5.13;;;;;;;14.90;100.00;92536.84;5172987;27;20094;-86
2022/06/09 01:16:03;;;;;;;8.50;4.95;;;;;;;14.84;100.00;92520.53;5172613;27;20408;-86
2022/06/09 01:18:38;;;;;;;7.00;5.13;;;;;;;14.87;100.00;92527.78;5171605;27;20114;-88
2022/06/09 01:21:16;;;;;;;10.75;4.80;;;;;;;14.77;100.00;92525.91;5172444;27;20090;-86
2022/06/09 01:24:20;;;;;;;7.47;4.72;;;;;;;14.82;100.00;92532.94;5168851;27;20054;-86
2022/06/09 01:27:15;;;;;;;6.93;5.15;;;;;;;14.68;100.00;92517.06;5170414;27;20042;-87
2022/06/09 01:29:47;;;;;;;7.35;5.20;;;;;;;14.75;100.00;92534.94;5163773;27;20034;-86
2022/06/09 01:32:20;;;;;;;8.30;5.57;;;;;;;14.76;100.00;92526.19;5170798;27;20042;-87
2022/06/09 01:34:56;;;;;;;6.75;4.75;;;;;;;14.72;100.00;92527.69;5171451;27;20184;-86
2022/06/09 01:37:27;;;;;;;6.80;5.30;;;;;;;14.58;100.00;92510.03;5171598;27;20050;-86
2022/06/09 01:39:55;;;;;;;7.20;4.40;;;;;;;14.68;100.00;92537.75;5170679;27;20131;-87
2022/06/09 01:42:29;;;;;;;9.18;4.75;;;;;;;14.67;100.00;92541.34;5171259;27;20125;-87
2022/06/09 01:44:59;;;;;;;11.55;6.70;;;;;;;14.63;100.00;92542.91;5170935;27;20042;-87
2022/06/09 01:47:36;;;;;;;12.15;7.32;;;;;;;14.61;100.00;92532.00;5169853;27;20484;-87
2022/06/09 01:50:07;;;;;;;15.23;8.80;;;;;;;14.62;100.00;92529.19;5170457;27;20057;-92
2022/06/09 01:52:39;;;;;;;13.70;9.18;;;;;;;14.65;100.00;92527.91;5171262;27;20050;-88
2022/06/09 01:55:09;;;;;;;17.95;9.57;;;;;;;14.65;100.00;92541.63;5171955;27;20061;-86
2022/06/09 01:57:41;;;;;;;21.20;8.98;;;;;;;14.63;100.00;92541.06;5174063;27;20433;-86
2022/06/09 02:00:11;;;;;;;17.20;9.30;;;;;;;14.51;100.00;92528.38;5173476;27;20046;-86
2022/06/09 02:02:46;;;;;;;18.98;10.18;;;;;;;14.42;100.00;92533.25;5173500;27;20042;-85
2022/06/09 02:05:18;;;;;;;21.48;9.60;;;;;;;14.13;100.00;92525.03;5174183;27;20396;-85
2022/06/09 02:07:46;;;;;;;18.05;8.50;;;;;;;14.23;100.00;92542.41;5173615;27;20046;-87
2022/06/09 02:10:21;;;;;;;23.88;11.82;;;;;;;14.27;100.00;92540.88;5173756;27;20502;-85
2022/06/09 02:12:49;;;;;;;25.02;13.38;;;;;;;14.33;100.00;92533.94;5172565;27;20042;-86
2022/06/09 02:15:23;;;;;;;29.90;13.45;;;;;;;14.43;100.00;92546.91;5175981;27;20129;-86
2022/06/09 02:17:53;;;;;;;22.65;13.05;;;;;;;14.42;100.00;92540.19;5176373;27;20087;-86
2022/06/09 02:20:24;;;;;;;24.52;13.50;;;;;;;14.48;100.00;92546.19;5176220;27;20053;-86
2022/06/09 02:22:53;;;;;;;28.60;12.10;;;;;;;14.40;100.00;92543.03;5176485;27;20091;-86
2022/06/09 02:25:19;;;;;;;29.85;13.65;;;;;;;14.50;100.00;92541.53;5175916;27;20445;-87
2022/06/09 02:27:46;;;;;;;26.50;13.38;;;;;;;14.48;100.00;92526.28;5177286;27;20034;-87
2022/06/09 02:30:15;;;;;;;25.95;13.48;;;;;;;14.53;100.00;92528.09;5177478;27;20551;-86
2022/06/09 02:32:41;;;;;;;28.55;13.15;;;;;;;14.65;100.00;92541.63;5177656;27;20444;-85
2022/06/09 02:35:10;;;;;;;29.30;12.02;;;;;;;14.67;100.00;92546.53;5177297;27;20034;-86
2022/06/09 02:37:37;;;;;;;26.33;12.55;;;;;;;14.48;100.00;92538.44;5175250;27;20078;-86
2022/06/09 02:40:05;;;;;;;25.30;13.10;;;;;;;14.41;100.00;92539.41;5177166;27;20042;-85
2022/06/09 02:42:34;;;;;;;30.02;14.27;;;;;;;14.41;100.00;92538.66;5177217;27;20050;-86
2022/06/09 02:45:02;;;;;;;32.25;13.60;;;;;;;14.49;100.00;92532.22;5177359;27;20047;-85
2022/06/09 02:47:29;;;;;;;30.42;13.05;;;;;;;14.52;100.00;92540.25;5177067;27;20053;-86
2022/06/09 02:49:56;;;;;;;29.35;11.85;;;;;;;14.57;100.00;92544.66;5177344;27;20497;-85
2022/06/09 02:52:27;;;;;;;22.60;11.35;;;;;;;14.62;100.00;92549.09;5175119;27;20091;-85
2022/06/09 02:54:54;;;;;;;29.35;12.98;;;;;;;14.68;100.00;92548.09;5174916;27;20038;-85
2022/06/09 02:57:23;;;;;;;26.95;12.05;;;;;;;14.65;100.00;92544.22;5177318;27;20492;-85
2022/06/09 02:59:52;;;;;;;28.00;12.68;;;;;;;14.29;100.00;92539.63;5177166;27;20043;-86
2022/06/09 03:02:19;;;;;;;27.88;12.65;;;;;;;14.18;100.00;92507.00;5176967;27;20080;-86
2022/06/09 03:04:46;;;;;;;30.70;13.27;;;;;;;14.35;100.00;92516.41;5176579;27;20039;-85
2022/06/09 03:07:13;;;;;;;28.00;12.85;;;;;;;14.53;100.00;92533.25;5177108;27;20048;-85
2022/06/09 03:09:42;;;;;;;25.80;12.93;;;;;;;14.56;100.00;92533.56;5174844;27;20468;-86
2022/06/09 03:12:10;;;;;;;24.63;12.02;;;;;;;14.65;100.00;92533.88;5176698;27;20046;-86
2022/06/09 03:14:39;;;;;;;23.10;10.98;;;;;;;14.72;100.00;92538.03;5176532;27;20045;-88
2022/06/09 03:17:06;;;;;;;21.83;11.73;;;;;;;14.60;100.00;92527.88;5176630;27;20042;-87
2022/06/09 03:19:33;;;;;;;24.83;11.27;;;;;;;14.72;100.00;92543.97;5176688;27;20041;-86
2022/06/09 03:22:00;;;;;;;22.02;12.13;;;;;;;14.67;100.00;92538.75;5176501;27;20071;-86
2022/06/09 03:24:27;;;;;;;22.15;11.70;;;;;;;14.72;100.00;92541.38;5175475;27;20062;-86
2022/06/09 03:27:10;;;;;;;21.67;11.50;;;;;;;14.64;100.00;92528.94;5176890;27;20114;-84
2022/06/09 03:29:37;;;;;;;26.15;11.80;;;;;;;14.74;100.00;92546.31;5175051;27;20046;-85
2022/06/09 03:32:04;;;;;;;26.25;12.50;;;;;;;14.69;100.00;92553.00;5175871;27;20042;-85
2022/06/09 03:34:31;;;;;;;26.30;12.82;;;;;;;14.75;100.00;92553.84;5176219;27;20469;-85
2022/06/09 03:36:58;;;;;;;26.90;12.00;;;;;;;14.78;100.00;92552.56;5176491;27;20042;-85
2022/06/09 03:39:24;;;;;;;23.38;12.32;;;;;;;14.83;100.00;92550.00;5176014;27;20480;-86
2022/06/09 03:41:51;;;;;;;20.67;11.10;;;;;;;14.85;100.00;92552.34;5176114;27;20138;-85
2022/06/09 03:44:21;;;;;;;21.40;11.57;;;;;;;14.88;100.00;92549.22;5176304;27;20038;-85
2022/06/09 03:46:47;;;;;;;28.38;13.85;;;;;;;14.89;100.00;92543.81;5176068;27;20083;-86
2022/06/09 03:49:14;;;;;;;23.67;11.68;;;;;;;14.97;100.00;92550.31;5179805;27;20042;-86
2022/06/09 03:51:41;;;;;;;26.67;12.88;;;;;;;15.01;100.00;92553.16;5178756;27;20034;-82
2022/06/09 03:54:09;;;;;;;19.85;10.60;;;;;;;14.87;100.00;92555.44;5187365;27;20097;-85
2022/06/09 03:56:36;;;;;;;18.70;10.35;;;;;;;14.59;100.00;92552.97;5183608;27;20034;-85
2022/06/09 03:59:03;;;;;;;21.40;10.50;;;;;;;14.58;100.00;92564.31;5176126;27;20079;-86
2022/06/09 04:01:33;;;;;;;19.13;10.80;;;;;;;14.53;100.00;92557.31;5173765;27;20042;-86
2022/06/09 04:04:00;;;;;;;18.23;10.70;;;;;;;14.45;100.00;92559.59;5174139;27;21151;-85
2022/06/09 04:06:27;;;;;;;18.85;10.85;;;;;;;14.60;100.00;92561.47;5175901;27;20488;-85
2022/06/09 04:08:54;;;;;;;25.85;12.95;;;;;;;14.38;100.00;92560.59;5175603;27;20461;-86
2022/06/09 04:11:23;;;;;;;25.27;12.68;;;;;;;14.36;100.00;92554.91;5175469;27;20532;-85
2022/06/09 04:13:50;;;;;;;31.67;14.73;;;;;;;14.35;100.00;92555.91;5175544;27;20094;-85
2022/06/09 04:16:22;;;;;;;26.98;13.93;;;;;;;14.56;100.00;92561.22;5175677;27;20094;-86
2022/06/09 04:18:51;;;;;;;33.17;15.45;;;;;;;14.38;100.00;92563.19;5174233;27;20043;-86
2022/06/09 04:21:20;;;;;;;38.28;17.45;;;;;;;14.53;100.00;92562.47;5173593;27;20476;-85
2022/06/09 04:23:47;;;;;;;38.33;17.75;;;;;;;14.70;100.00;92566.72;5173185;27;20050;-86
2022/06/09 04:26:16;;;;;;;36.35;17.23;;;;;;;14.79;100.00;92561.88;5175114;27;20067;-85
2022/06/09 04:28:42;;;;;;;44.65;20.05;;;;;;;14.88;100.00;92560.38;5175105;27;20121;-86
2022/06/09 04:31:10;;;;;;;39.80;20.15;;;;;;;14.91;100.00;92554.69;5175320;27;20095;-86
2022/06/09 04:33:36;;;;;;;38.95;17.75;;;;;;;15.01;100.00;92559.13;5175685;27;20046;-86
2022/06/09 04:36:05;;;;;;;37.47;17.90;;;;;;;15.10;100.00;92557.59;5173253;27;20038;-85
2022/06/09 04:38:33;;;;;;;37.80;18.85;;;;;;;15.14;100.00;92546.75;5175096;27;20082;-86
2022/06/09 04:41:01;;;;;;;37.03;18.05;;;;;;;15.32;100.00;92561.81;5174658;27;20046;-86
2022/06/09 04:43:27;;;;;;;38.33;19.38;;;;;;;15.41;100.00;92563.91;5174754;27;20038;-85
2022/06/09 04:45:54;;;;;;;42.55;19.15;;;;;;;15.46;100.00;92566.50;5174687;27;20464;-85
2022/06/09 04:48:21;;;;;;;40.20;19.17;;;;;;;15.51;100.00;92561.34;5175143;27;20091;-85
2022/06/09 04:50:47;;;;;;;41.47;20.85;;;;;;;15.55;100.00;92554.59;5175112;27;20038;-85
2022/06/09 04:53:16;;;;;;;51.72;20.05;;;;;;;15.57;100.00;92560.31;5175017;27;20038;-85
2022/06/09 04:55:43;;;;;;;39.50;18.75;;;;;;;15.59;100.00;92560.03;5174744;27;20090;-85
2022/06/09 04:58:10;;;;;;;41.28;19.25;;;;;;;15.63;100.00;92556.69;5172781;27;20125;-84
2022/06/09 05:00:37;;;;;;;41.05;19.60;;;;;;;15.53;100.00;92550.72;5174742;27;20113;-86
2022/06/09 05:03:04;;;;;;;43.80;22.35;;;;;;;15.59;100.00;92547.88;5174506;27;20544;-85
2022/06/09 05:05:33;;;;;;;39.67;18.88;;;;;;;15.61;100.00;92550.22;5174638;27;20042;-84
2022/06/09 05:08:00;;;;;;;46.53;19.77;;;;;;;15.78;100.00;92547.38;5172624;27;20039;-85
2022/06/09 05:10:29;;;;;;;35.70;19.00;;;;;;;15.87;100.00;92545.06;5172185;27;20046;-85
2022/06/09 05:12:56;;;;;;;35.28;17.92;;;;;;;16.01;100.00;92547.94;5174932;27;20038;-84
2022/06/09 05:15:23;;;;;;;31.58;15.90;;;;;;;15.95;100.00;92543.78;5174375;27;20545;-85
2022/06/09 05:17:51;;;;;;;25.55;14.27;;;;;;;16.05;100.00;92543.03;5174703;27;20046;-84
2022/06/09 05:20:20;;;;;;;30.40;14.98;;;;;;;16.26;100.00;92536.00;5174384;27;20034;-86
2022/06/09 05:22:47;;;;;;;37.30;17.08;;;;;;;16.46;100.00;92534.41;5172041;27;20046;-85
2022/06/09 05:25:15;;;;;;;27.15;14.93;;;;;;;16.65;100.00;92532.81;5174606;27;20442;-85
2022/06/09 05:27:44;;;;;;;32.70;15.38;;;;;;;16.80;100.00;92539.00;5174268;27;20105;-85
2022/06/09 05:30:15;;;;;;;28.65;14.57;;;;;;;17.02;100.00;92532.69;5174489;27;20082;-85
2022/06/09 05:32:42;;;;;;;19.85;12.05;;;;;;;17.15;100.00;92542.53;5174571;27;20045;-85
2022/06/09 05:35:10;;;;;;;19.85;11.50;;;;;;;17.34;100.00;92527.13;5174208;27;20136;-85
2022/06/09 05:45:55;;;;;;;14.73;7.68;;;;;;;18.02;100.00;92527.41;5172658;27;20074;-84
2022/06/09 05:48:22;;;;;;;16.38;9.43;;;;;;;18.26;100.00;92533.75;5173496;27;20408;-84
2022/06/09 05:50:49;;;;;;;17.63;8.85;;;;;;;18.54;100.00;92534.00;5171451;27;20050;-85
2022/06/09 05:53:16;;;;;;;12.65;7.35;;;;;;;18.77;100.00;92537.69;5173207;27;20094;-81
2022/06/09 05:55:43;;;;;;;12.23;7.72;;;;;;;18.73;100.00;92535.91;5172797;27;20050;-82
2022/06/09 05:58:11;;;;;;;11.77;7.53;;;;;;;19.01;100.00;92543.91;5172408;27;20090;-83
2022/06/09 06:00:38;;;;;;;13.75;7.75;;;;;;;18.95;100.00;92544.00;5170743;27;20042;-82
2022/06/09 06:03:05;;;;;;;25.23;10.77;;;;;;;18.84;100.00;92545.13;5171978;27;20046;-83
2022/06/09 06:08:16;;;;;;;38.17;18.75;;;;;;;18.77;100.00;92526.50;5171403;27;20049;-83
2022/06/09 06:10:42;;;;;;;37.20;17.77;;;;;;;19.03;100.00;92515.81;5171958;27;20043;-83
2022/06/09 06:13:12;;;;;;;33.13;16.73;;;;;;;18.85;100.00;92533.69;5172322;27;20075;-82
2022/06/09 06:15:38;;;;;;;33.85;16.42;;;;;;;19.00;100.00;92521.56;5170145;27;20046;-84
2022/06/09 06:18:06;;;;;;;36.08;15.98;;;;;;;18.99;100.00;92541.63;5172126;27;20472;-82
2022/06/09 06:20:34;;;;;;;50.72;18.75;;;;;;;19.26;100.00;92534.28;5172276;27;20087;-83
2022/06/09 06:23:00;;;;;;;48.70;18.02;;;;;;;19.44;100.00;92510.06;5169100;27;20055;-82
2022/06/09 06:25:27;;;;;;;50.95;18.55;;;;;;;20.00;100.00;92538.22;5171849;27;20046;-81
2022/06/09 06:27:55;;;;;;;35.22;14.88;;;;;;;20.21;100.00;92543.88;5170300;27;20039;-81
2022/06/09 06:30:23;;;;;;;33.97;15.15;;;;;;;20.41;100.00;92542.75;5171920;27;20475;-82
2022/06/09 06:32:50;;;;;;;33.80;15.13;;;;;;;20.76;100.00;92536.41;5171841;27;20460;-81
2022/06/09 06:35:17;;;;;;;26.40;12.38;;;;;;;20.73;100.00;92532.56;5171878;27;20046;-80
2022/06/09 06:37:44;;;;;;;26.42;11.57;;;;;;;20.92;100.00;92545.53;5171867;27;20038;-81
2022/06/09 06:40:14;;;;;;;24.15;11.63;;;;;;;20.97;100.00;92544.69;5169771;27;20114;-81
2022/06/09 06:42:41;;;;;;;31.98;12.18;;;;;;;21.35;100.00;92554.13;5171637;27;20042;-80
2022/06/09 06:45:11;;;;;;;27.23;11.68;;;;;;;21.46;100.00;92546.81;5171811;27;20073;-81
2022/06/09 06:47:39;;;;;;;19.52;11.02;;;;;;;21.69;100.00;92536.41;5171563;27;20087;-81
2022/06/09 06:50:08;;;;;;;20.95;11.55;;;;;;;21.79;100.00;92538.06;5171627;27;20064;-81
2022/06/09 06:52:35;;;;;;;21.38;10.32;;;;;;;22.17;100.00;92532.47;5171994;27;20373;-80
2022/06/09 06:55:01;;;;;;;21.52;10.13;;;;;;;22.51;100.00;92532.97;5170092;27;20087;-82
2022/06/09 06:57:28;;;;;;;24.45;10.82;;;;;;;22.83;100.00;92524.00;5167333;27;20035;-81
2022/06/09 06:59:55;;;;;;;21.90;12.10;;;;;;;23.21;100.00;92535.84;5167336;27;20073;-81
2022/06/09 07:02:22;;;;;;;23.35;10.27;;;;;;;23.58;95.36;92534.81;5163714;27;20042;-81
2022/06/09 07:04:50;;;;;;;22.70;11.70;;;;;;;23.44;94.28;92527.09;5175020;27;20038;-82
2022/06/09 07:07:17;;;;;;;20.27;11.77;;;;;;;23.20;95.10;92523.81;5170213;27;20095;-82
2022/06/09 07:09:44;;;;;;;21.02;12.43;;;;;;;23.67;94.77;92521.72;5164550;27;20403;-82
2022/06/09 07:12:11;;;;;;;16.15;8.85;;;;;;;23.66;92.01;92515.72;5166002;27;20046;-81
2022/06/09 07:14:38;;;;;;;18.63;9.60;;;;;;;24.05;89.17;92515.84;5167942;27;20042;-82
2022/06/09 07:17:06;;;;;;;14.98;8.60;;;;;;;24.09;89.80;92510.75;5167406;27;20093;-82
2022/06/09 07:19:32;;;;;;;14.77;8.23;;;;;;;24.44;92.03;92513.28;5167544;27;20064;-81
2022/06/09 07:22:00;;;;;;;16.98;8.13;;;;;;;24.68;90.22;92507.50;5170967;27;20087;-80
2022/06/09 07:24:27;;;;;;;11.10;6.65;;;;;;;25.02;83.98;92512.16;5169558;27;20050;-82
2022/06/09 07:26:54;;;;;;;9.30;4.80;;;;;;;25.21;77.99;92509.91;5171630;27;20046;-82
2022/06/09 07:29:21;;;;;;;10.38;5.90;;;;;;;25.41;79.99;92497.06;5168878;27;20042;-82
2022/06/09 07:31:48;;;;;;;14.35;6.10;;;;;;;25.07;76.32;92485.69;5172797;27;20042;-82
2022/06/09 07:34:15;;;;;;;9.70;5.53;;;;;;;25.11;82.82;92485.84;5172197;27;20098;-82
2022/06/09 07:36:42;;;;;;;8.82;5.60;;;;;;;24.08;79.98;92481.16;5174662;27;20047;-85
2022/06/09 07:39:10;;;;;;;8.52;5.00;;;;;;;23.08;83.74;92487.75;5174287;27;20074;-82
2022/06/09 07:41:37;;;;;;;10.73;6.50;;;;;;;23.07;88.39;92485.41;5174554;27;20046;-83
2022/06/09 07:44:07;;;;;;;10.52;6.50;;;;;;;23.20;87.61;92487.13;5174426;27;20103;-83
2022/06/09 07:46:34;;;;;;;14.15;7.45;;;;;;;22.80;94.40;92476.72;5170470;27;20115;-82
2022/06/09 07:49:01;;;;;;;13.57;7.50;;;;;;;23.40;89.16;92469.31;5174740;27;20447;-82
2022/06/09 07:51:30;;;;;;;12.90;7.15;;;;;;;23.37;90.09;92471.78;5174300;27;20042;-81
2022/06/09 07:53:58;;;;;;;11.43;6.18;;;;;;;23.21;89.54;92464.31;5174150;27;20057;-82
2022/06/09 07:56:26;;;;;;;9.80;6.45;;;;;;;22.66;89.52;92455.91;5174120;27;20046;-82
2022/06/09 07:58:53;;;;;;;13.25;7.45;;;;;;;22.94;89.59;92463.50;5174024;27;20408;-82
2022/06/09 08:01:22;;;;;;;13.98;6.50;;;;;;;22.89;88.52;92461.81;5174250;27;20118;-82
2022/06/09 08:03:50;;;;;;;11.55;7.40;;;;;;;22.93;89.93;92461.97;5172030;27;20042;-83
2022/06/09 08:06:17;;;;;;;8.45;6.20;;;;;;;23.05;88.62;92458.78;5174185;27;20488;-82
2022/06/09 08:08:44;;;;;;;13.70;6.47;;;;;;;23.29;89.37;92447.06;5173923;27;20050;-82
2022/06/09 08:11:10;;;;;;;16.50;6.72;;;;;;;23.78;91.88;92452.16;5173279;27;20091;-82
2022/06/09 08:13:38;;;;;;;9.75;5.43;;;;;;;24.22;86.63;92461.81;5173768;27;20114;-82
2022/06/09 08:16:07;;;;;;;10.77;6.35;;;;;;;24.66;86.54;92453.75;5170429;27;20465;-82
2022/06/09 08:18:34;;;;;;;16.50;6.35;;;;;;;25.12;83.90;92446.09;5173856;27;20484;-82
2022/06/09 08:21:01;;;;;;;12.30;6.03;;;;;;;25.49;82.49;92453.41;5173706;27;20133;-82
2022/06/09 08:23:29;;;;;;;9.18;5.78;;;;;;;25.91;80.28;92454.47;5172725;27;20437;-82
2022/06/09 08:26:02;;;;;;;10.13;5.38;;;;;;;26.12;72.55;92454.41;5173759;27;20065;-82
2022/06/09 08:28:29;;;;;;;9.00;3.55;;;;;;;25.33;67.07;92447.97;5173954;27;20612;-83
2022/06/09 08:30:57;;;;;;;7.78;3.60;;;;;;;25.57;75.05;92449.97;5172805;27;20098;-82
2022/06/09 08:33:25;;;;;;;6.80;3.08;;;;;;;25.59;67.98;92439.16;5171772;27;20500;-85
2022/06/09 08:35:53;;;;;;;6.47;3.78;;;;;;;23.85;68.96;92449.06;5172535;27;20042;-85
2022/06/09 08:38:20;;;;;;;7.18;3.78;;;;;;;24.17;72.21;92441.78;5173131;27;20086;-85
2022/06/09 08:40:53;;;;;;;8.32;3.75;;;;;;;24.12;71.54;92432.19;5173404;27;20042;-84
2022/06/09 08:43:31;;;;;;;7.03;3.78;;;;;;;24.25;71.59;92433.09;5173409;27;20038;-83
2022/06/09 08:46:08;;;;;;;10.35;3.80;;;;;;;25.02;77.47;92433.34;5171832;27;20057;-83
2022/06/09 08:48:41;;;;;;;9.02;4.10;;;;;;;25.60;73.84;92427.53;5172944;27;20377;-84
2022/06/09 08:51:14;;;;;;;8.25;4.10;;;;;;;25.16;69.67;92414.69;5170292;27;20047;-84
2022/06/09 08:53:46;;;;;;;9.50;4.20;;;;;;;24.80;69.18;92429.88;5171217;27;20098;-83
2022/06/09 08:56:27;;;;;;;8.43;4.63;;;;;;;23.81;69.85;92430.56;5171649;27;20134;-84
2022/06/09 08:58:58;;;;;;;9.45;4.00;;;;;;;24.61;69.54;92425.81;5172878;27;20050;-84
2022/06/09 09:01:33;;;;;;;12.63;4.60;;;;;;;25.36;73.53;92418.41;5172645;27;20097;-85
2022/06/09 09:04:06;;;;;;;8.90;4.15;;;;;;;25.49;66.29;92413.97;5171082;27;20110;-84
2022/06/09 09:06:38;;;;;;;9.02;3.97;;;;;;;25.54;67.65;92413.81;5171403;27;20050;-85
2022/06/09 09:09:14;;;;;;;10.65;4.53;;;;;;;25.99;69.28;92406.25;5172754;27;20078;-84
2022/06/09 09:11:53;;;;;;;13.77;4.88;;;;;;;26.43;69.73;92411.06;5172436;27;20640;-84
2022/06/09 09:14:25;;;;;;;11.00;4.35;;;;;;;26.58;68.04;92411.47;5164646;27;20102;-85
2022/06/09 09:17:02;;;;;;;9.68;4.70;;;;;;;26.83;67.45;92404.31;5171795;27;20098;-85
2022/06/09 09:19:42;;;;;;;9.55;4.07;;;;;;;27.00;64.40;92392.78;5172189;27;20042;-86
2022/06/09 09:22:16;;;;;;;9.73;3.85;;;;;;;27.45;63.63;92395.50;5170682;27;20467;-87
2022/06/09 09:24:55;;;;;;;12.07;5.10;;;;;;;27.90;62.02;92398.94;5171800;27;20046;-85
2022/06/09 09:27:33;;;;;;;12.73;5.32;;;;;;;28.21;62.07;92394.78;5169146;27;20322;-85
2022/06/09 09:30:12;;;;;;;12.40;4.63;;;;;;;28.56;60.17;92388.06;5170210;27;20114;-85
2022/06/09 09:32:43;;;;;;;10.65;3.70;;;;;;;28.88;59.04;92382.72;5170404;27;20049;-85
2022/06/09 09:35:14;;;;;;;8.38;4.18;;;;;;;28.99;53.55;92384.84;5172183;27;20042;-85
2022/06/09 09:37:46;;;;;;;7.38;3.90;;;;;;;29.29;54.46;92381.66;5172306;27;20061;-85
2022/06/09 09:40:23;;;;;;;7.05;3.65;;;;;;;29.34;53.89;92362.84;5172117;27;20038;-85
2022/06/09 09:42:53;;;;;;;6.97;3.05;;;;;;;29.73;50.07;92370.00;5170324;27;20097;-82
2022/06/09 09:45:30;;;;;;;7.18;3.45;;;;;;;29.98;51.08;92364.38;5170486;27;20046;-83
2022/06/09 09:48:00;;;;;;;10.02;3.67;;;;;;;29.63;48.26;92363.41;5171538;27;20042;-83
2022/06/09 09:50:35;;;;;;;5.28;3.22;;;;;;;28.81;51.32;92375.41;5171721;27;20131;-83
2022/06/09 09:53:05;;;;;;;7.90;4.00;;;;;;;29.11;52.09;92354.88;5169878;27;20133;-83
2022/06/09 09:55:41;;;;;;;7.85;3.53;;;;;;;29.44;50.60;92364.19;5171330;27;20038;-83
2022/06/09 09:58:24;;;;;;;5.15;3.03;;;;;;;29.19;49.27;92361.81;5170680;27;20459;-83
2022/06/09 10:00:54;;;;;;;8.93;3.10;;;;;;;28.29;51.34;92364.06;5170398;27;20099;-83
2022/06/09 10:09:29;;;;;;;5.53;3.00;;;;;;;29.68;47.61;92349.91;5166173;27;20511;-85
2022/06/09 10:12:05;;;;;;;;;;;;;;;29.45;43.69;92360.41;5163332;27;20046;-85
2022/06/09 10:14:47;;;;;;;9.15;2.67;;;;;;;28.97;43.58;92344.78;5163940;27;19919;-83
2022/06/09 10:17:30;;;;;;;6.38;3.35;;;;;;;29.50;47.90;92338.22;5169421;27;20034;-84
2022/06/09 10:20:06;;;;;;;8.40;3.60;;;;;;;29.63;46.68;92339.59;5170410;27;20042;-84
2022/06/09 10:22:36;;;;;;;4.68;2.40;;;;;;;29.92;47.88;92352.53;5169541;27;20046;-83
2022/06/09 10:25:17;;;;;;;8.57;2.60;;;;;;;30.04;47.10;92341.78;5171659;27;20087;-85
2022/06/09 10:27:49;;;;;;;6.85;2.63;;;;;;;30.22;46.64;92318.25;5171075;27;20476;-84
2022/06/09 10:30:19;;;;;;;6.35;2.58;;;;;;;30.54;44.07;92335.72;5171301;27;20564;-84
2022/06/09 10:32:52;;;;;;;4.93;2.50;;;;;;;30.57;43.41;92340.31;5170316;27;20038;-85
2022/06/09 10:35:30;;;;;;;10.43;2.83;;;;;;;30.50;45.26;92332.28;5174442;27;20083;-85
2022/06/09 10:38:03;;;;;;;4.85;2.42;;;;;;;30.72;44.91;92325.38;5174600;27;20046;-84
2022/06/09 10:40:37;;;;;;;5.93;2.72;;;;;;;30.82;44.44;92323.25;5175453;27;21768;-84
2022/06/09 10:43:11;;;;;;;3.80;1.95;;;;;;;30.59;39.40;92329.34;5175155;27;20042;-85
2022/06/09 10:45:44;;;;;;;6.57;2.53;;;;;;;30.89;44.52;92323.31;5173697;27;20043;-85
2022/06/09 10:56:57;;;;;;;10.85;2.60;;;;;;;31.24;40.10;92308.19;5174797;27;20048;-85
2022/06/09 10:59:30;;;;;;;3.58;2.20;;;;;;;31.55;43.39;92314.97;5173451;27;20470;-85
2022/06/09 11:01:57;;;;;;;4.45;1.83;;;;;;;31.58;37.90;92286.94;5173608;27;20042;-85
2022/06/09 11:04:25;;;;;;;4.60;1.70;;;;;;;31.72;38.94;92304.88;5174760;27;20042;-84
2022/06/09 11:07:17;;;;;;;5.68;2.30;;;;;;;31.86;38.58;92304.28;5173055;27;20054;-86
2022/06/09 11:09:55;;;;;;;2.85;1.90;;;;;;;31.43;35.18;92294.75;5172586;27;20038;-84
2022/06/09 11:12:33;;;;;;;4.35;1.63;;;;;;;31.15;39.30;92308.47;5172721;27;20038;-85
2022/06/09 11:15:25;;;;;;;9.77;1.90;;;;;;;31.02;39.74;92306.06;5173588;27;20393;-85
2022/06/09 11:18:18;;;;;;;4.47;1.58;;;;;;;30.69;34.70;92304.09;5172952;27;20099;-86
2022/06/09 11:20:58;;;;;;;6.43;2.00;;;;;;;30.47;38.18;92301.94;5173344;27;20042;-85
2022/06/09 11:23:41;;;;;;;7.70;1.75;;;;;;;30.51;40.06;92302.75;5172784;27;20048;-84
2022/06/09 11:26:19;;;;;;;5.70;1.52;;;;;;;30.58;38.86;92296.03;5170522;27;20042;-84
2022/06/09 11:28:58;;;;;;;5.40;1.60;;;;;;;30.65;38.18;92291.56;5173401;27;20042;-85
2022/06/09 11:31:45;;;;;;;2.90;1.60;;;;;;;30.59;39.70;92284.31;5172415;27;20099;-85
2022/06/09 11:34:28;;;;;;;5.45;1.58;;;;;;;30.42;38.89;92275.75;5172503;27;20125;-86
2022/06/09 11:37:00;;;;;;;3.50;1.63;;;;;;;30.43;39.13;92292.41;5174280;27;20094;-85
2022/06/09 11:39:41;;;;;;;3.83;1.48;;;;;;;30.21;40.89;92287.59;5172545;27;20491;-85
2022/06/09 11:42:16;;;;;;;4.55;1.58;;;;;;;29.16;36.17;92265.44;5173624;27;20478;-85
2022/06/09 11:44:48;;;;;;;3.53;1.70;;;;;;;28.54;39.39;92282.75;5172098;27;20098;-85
2022/06/09 11:47:17;;;;;;;6.15;2.58;;;;;;;28.67;40.27;92286.03;5173434;27;20034;-85
2022/06/09 11:49:46;;;;;;;7.05;2.63;;;;;;;28.32;41.48;92283.41;5171923;27;20034;-83
2022/06/09 11:52:18;;;;;;;5.53;2.00;;;;;;;28.16;41.84;92276.25;5173980;27;20431;-83
2022/06/09 11:55:00;;;;;;;5.85;2.35;;;;;;;28.25;43.29;92274.22;5173880;27;20042;-85
2022/06/09 11:57:47;;;;;;;7.63;2.03;;;;;;;28.00;41.87;92273.63;5173451;27;20468;-85
2022/06/09 12:00:38;;;;;;;7.10;2.10;;;;;;;27.93;43.52;92266.31;5173240;27;20038;-81
2022/06/09 12:03:22;;;;;;;8.57;3.08;;;;;;;27.98;44.10;92265.28;5172055;27;20042;-85